Terminal Aerodrome Forecast
Issued by NWS

Home | Current Version | Previous Version | Text Only | Print | Product List | Glossary On
Versions: 1 2 3 4 5 6 7 8 9 10 11 12
000
FTUS43 KMPX 120500
TAFRWF
TAF
KRWF 120520Z 1206/1306 33004KT P6SM OVC050
     FM121200 32005KT P6SM BKN040 OVC080
     FM121600 33006KT P6SM -SHRA OVC040
     FM122200 31005KT P6SM SCT040 BKN100
     FM130000 VRB03KT P6SM SCT120=

USA.gov is the U.S. government's official web portal to all federal, state and local government web resources and services.